Time,TemperatureF,DewpointF,PressureIn,WindDirection,WindDirectionDegrees,WindSpeedMPH,WindSpeedGustMPH,Humidity,HourlyPrecipIn,Conditions,Clouds,dailyrainin,SoftwareType,DateUTC
2013-07-09 00:12:00,69.1,62.0,29.76,ESE,103,2.0,3.0,78,0.00,,,0.00,weatherlink.com 1.10,2013-07-09 06:12:00,
2013-07-09 00:27:00,70.0,61.0,29.76,SE,139,1.0,4.0,73,0.00,,,0.00,weatherlink.com 1.10,2013-07-09 06:27:00,
2013-07-09 00:42:00,70.5,60.0,29.76,ESE,104,4.0,4.0,70,0.00,,,0.00,weatherlink.com 1.10,2013-07-09 06:42:00,
2013-07-09 00:57:00,70.5,61.0,29.75,ESE,120,2.0,5.0,71,0.00,,,0.00,weatherlink.com 1.10,2013-07-09 06:57:00,
2013-07-09 01:12:00,70.1,62.0,29.75,SE,139,3.0,7.0,75,0.00,,,0.00,weatherlink.com 1.10,2013-07-09 07:12:00,
2013-07-09 01:27:00,69.4,62.0,29.75,ESE,108,3.0,7.0,77,0.00,,,0.00,weatherlink.com 1.10,2013-07-09 07:27:00,
2013-07-09 01:42:00,69.4,61.0,29.75,SE,142,5.0,5.0,75,0.00,,,0.00,weatherlink.com 1.10,2013-07-09 07:42:00,
2013-07-09 01:57:00,69.5,61.0,29.74,SE,128,1.0,5.0,75,0.00,,,0.00,weatherlink.com 1.10,2013-07-09 07:57:00,
2013-07-09 02:12:00,69.4,61.0,29.74,SE,141,1.0,5.0,75,0.00,,,0.00,weatherlink.com 1.10,2013-07-09 08:12:00,
2013-07-09 02:27:00,69.4,61.0,29.73,ESE,114,0.0,4.0,74,0.00,,,0.00,weatherlink.com 1.10,2013-07-09 08:27:00,
2013-07-09 02:42:00,69.5,61.0,29.73,SE,136,0.0,4.0,73,0.00,,,0.00,weatherlink.com 1.10,2013-07-09 08:42:00,
2013-07-09 02:57:00,68.9,61.0,29.73,SE,136,0.0,1.0,76,0.00,,,0.00,weatherlink.com 1.10,2013-07-09 08:57:00,
2013-07-09 03:12:00,68.5,61.0,29.72,SE,136,0.0,0.0,77,0.00,,,0.00,weatherlink.com 1.10,2013-07-09 09:12:00,
2013-07-09 03:27:00,68.3,62.0,29.72,North,350,0.0,1.0,80,0.00,,,0.00,weatherlink.com 1.10,2013-07-09 09:27:00,
2013-07-09 03:42:00,71.9,63.0,29.72,North,349,0.0,0.0,73,0.00,,,0.00,weatherlink.com 1.10,2013-07-09 09:42:00,
2013-07-09 03:57:00,69.8,62.0,29.73,North,349,0.0,0.0,77,0.00,,,0.00,weatherlink.com 1.10,2013-07-09 09:57:00,
2013-07-09 04:12:00,68.8,62.0,29.73,North,349,0.0,1.0,78,0.00,,,0.00,weatherlink.com 1.10,2013-07-09 10:12:00,
2013-07-09 04:27:00,67.9,62.0,29.73,North,350,0.0,1.0,81,0.00,,,0.00,weatherlink.com 1.10,2013-07-09 10:27:00,
2013-07-09 04:42:00,67.6,61.0,29.73,North,349,0.0,1.0,80,0.00,,,0.00,weatherlink.com 1.10,2013-07-09 10:42:00,
2013-07-09 04:58:00,67.3,61.0,29.73,North,349,0.0,1.0,81,0.00,,,0.00,weatherlink.com 1.10,2013-07-09 10:58:00,
2013-07-09 05:13:00,67.2,61.0,29.73,North,349,0.0,1.0,81,0.00,,,0.00,weatherlink.com 1.10,2013-07-09 11:13:00,
2013-07-09 05:28:00,67.4,61.0,29.74,North,8,0.0,2.0,81,0.00,,,0.00,weatherlink.com 1.10,2013-07-09 11:28:00,
2013-07-09 05:43:00,67.3,62.0,29.75,North,9,0.0,0.0,82,0.00,,,0.00,weatherlink.com 1.10,2013-07-09 11:43:00,
2013-07-09 05:58:00,67.2,62.0,29.75,North,8,0.0,0.0,82,0.00,,,0.00,weatherlink.com 1.10,2013-07-09 11:58:00,
2013-07-09 06:13:00,67.1,61.0,29.76,North,9,0.0,0.0,82,0.00,,,0.00,weatherlink.com 1.10,2013-07-09 12:13:00,
2013-07-09 06:28:00,67.0,62.0,29.77,North,9,0.0,0.0,84,0.00,,,0.00,weatherlink.com 1.10,2013-07-09 12:28:00,
2013-07-09 06:43:00,68.7,63.0,29.77,North,9,0.0,0.0,81,0.00,,,0.00,weatherlink.com 1.10,2013-07-09 12:43:00,
2013-07-09 06:58:00,69.5,62.0,29.78,North,9,0.0,0.0,77,0.00,,,0.00,weatherlink.com 1.10,2013-07-09 12:58:00,
2013-07-09 07:13:00,70.0,61.0,29.78,North,6,0.0,2.0,73,0.00,,,0.00,weatherlink.com 1.10,2013-07-09 13:13:00,
2013-07-09 07:28:00,71.0,61.0,29.79,NNW,340,0.0,1.0,71,0.00,,,0.00,weatherlink.com 1.10,2013-07-09 13:28:00,
2013-07-09 07:43:00,72.4,61.0,29.79,North,5,0.0,2.0,67,0.00,,,0.00,weatherlink.com 1.10,2013-07-09 13:43:00,
2013-07-09 07:58:00,73.9,61.0,29.79,South,191,0.0,1.0,64,0.00,,,0.00,weatherlink.com 1.10,2013-07-09 13:58:00,
2013-07-09 08:13:00,75.3,62.0,29.79,SSW,201,0.0,1.0,63,0.00,,,0.00,weatherlink.com 1.10,2013-07-09 14:13:00,
2013-07-09 08:28:00,77.4,60.0,29.80,North,355,0.0,2.0,55,0.00,,,0.00,weatherlink.com 1.10,2013-07-09 14:28:00,
2013-07-09 08:43:00,79.2,60.0,29.80,North,349,0.0,2.0,52,0.00,,,0.00,weatherlink.com 1.10,2013-07-09 14:43:00,
2013-07-09 08:58:00,80.1,60.0,29.80,ESE,108,0.0,2.0,50,0.00,,,0.00,weatherlink.com 1.10,2013-07-09 14:58:00,
2013-07-09 09:13:00,81.5,60.0,29.80,WSW,237,1.0,2.0,48,0.00,,,0.00,weatherlink.com 1.10,2013-07-09 15:13:00,
2013-07-09 09:28:00,80.6,60.0,29.79,SSE,165,0.0,4.0,50,0.00,,,0.00,weatherlink.com 1.10,2013-07-09 15:28:00,
2013-07-09 09:43:00,82.7,62.0,29.79,WSW,249,4.0,4.0,49,0.00,,,0.00,weatherlink.com 1.10,2013-07-09 15:43:00,
2013-07-09 09:58:00,82.6,61.0,29.79,SSE,153,1.0,3.0,48,0.00,,,0.00,weatherlink.com 1.10,2013-07-09 15:58:00,
2013-07-09 10:13:00,83.2,61.0,29.79,South,179,1.0,4.0,47,0.00,,,0.00,weatherlink.com 1.10,2013-07-09 16:13:00,
2013-07-09 10:28:00,83.4,62.0,29.79,ESE,116,4.0,5.0,48,0.00,,,0.00,weatherlink.com 1.10,2013-07-09 16:28:00,
2013-07-09 10:43:00,84.2,61.0,29.79,WSW,252,0.0,4.0,46,0.00,,,0.00,weatherlink.com 1.10,2013-07-09 16:43:00,
2013-07-09 10:58:00,83.8,61.0,29.78,SW,229,1.0,8.0,46,0.00,,,0.00,weatherlink.com 1.10,2013-07-09 16:58:00,
2013-07-09 11:13:00,84.6,59.0,29.78,SSE,150,0.0,7.0,42,0.00,,,0.00,weatherlink.com 1.10,2013-07-09 17:13:00,
2013-07-09 11:28:00,85.7,59.0,29.77,WSW,242,3.0,5.0,41,0.00,,,0.00,weatherlink.com 1.10,2013-07-09 17:28:00,
2013-07-09 11:45:00,87.4,60.0,29.77,WNW,285,1.0,4.0,40,0.00,,,0.00,weatherlink.com 1.10,2013-07-09 17:45:00,
2013-07-09 11:58:00,87.8,59.0,29.77,SSW,203,3.0,6.0,38,0.00,,,0.00,weatherlink.com 1.10,2013-07-09 17:58:00,
2013-07-09 12:13:00,88.8,59.0,29.76,SW,235,0.0,5.0,37,0.00,,,0.00,weatherlink.com 1.10,2013-07-09 18:13:00,
2013-07-09 12:29:00,89.2,60.0,29.76,SSE,162,2.0,4.0,37,0.00,,,0.00,weatherlink.com 1.10,2013-07-09 18:29:00,
2013-07-09 12:44:00,90.0,60.0,29.75,SSE,150,1.0,3.0,36,0.00,,,0.00,weatherlink.com 1.10,2013-07-09 18:44:00,
2013-07-09 12:59:00,89.8,59.0,29.74,WSW,238,2.0,8.0,36,0.00,,,0.00,weatherlink.com 1.10,2013-07-09 18:59:00,
2013-07-09 13:14:00,90.9,60.0,29.73,SSE,150,2.0,4.0,36,0.00,,,0.00,weatherlink.com 1.10,2013-07-09 19:14:00,
2013-07-09 13:29:00,91.3,59.0,29.73,NNW,334,0.0,4.0,34,0.00,,,0.00,weatherlink.com 1.10,2013-07-09 19:29:00,
2013-07-09 13:44:00,93.6,59.0,29.72,SW,215,3.0,4.0,31,0.00,,,0.00,weatherlink.com 1.10,2013-07-09 19:44:00,
2013-07-09 13:59:00,94.3,59.0,29.71,South,170,0.0,4.0,31,0.00,,,0.00,weatherlink.com 1.10,2013-07-09 19:59:00,
2013-07-09 14:14:00,95.0,60.0,29.70,WSW,238,2.0,5.0,31,0.00,,,0.00,weatherlink.com 1.10,2013-07-09 20:14:00,
2013-07-09 14:29:00,94.7,58.0,29.69,WSW,254,0.0,3.0,29,0.00,,,0.00,weatherlink.com 1.10,2013-07-09 20:29:00,
2013-07-09 14:44:00,95.4,57.0,29.68,WSW,250,1.0,5.0,28,0.00,,,0.00,weatherlink.com 1.10,2013-07-09 20:44:00,
2013-07-09 14:59:00,95.0,57.0,29.68,NW,312,2.0,4.0,28,0.00,,,0.00,weatherlink.com 1.10,2013-07-09 20:59:00,
2013-07-09 15:14:00,95.9,57.0,29.67,SW,228,2.0,4.0,27,0.00,,,0.00,weatherlink.com 1.10,2013-07-09 21:14:00,
2013-07-09 15:29:00,96.8,56.0,29.66,East,87,1.0,6.0,25,0.00,,,0.00,weatherlink.com 1.10,2013-07-09 21:29:00,
2013-07-09 15:44:00,97.8,54.0,29.66,West,269,1.0,4.0,23,0.00,,,0.00,weatherlink.com 1.10,2013-07-09 21:44:00,
2013-07-09 15:59:00,97.7,54.0,29.65,NNW,335,1.0,6.0,23,0.00,,,0.00,weatherlink.com 1.10,2013-07-09 21:59:00,
2013-07-09 16:14:00,98.4,53.0,29.64,NW,314,2.0,5.0,22,0.00,,,0.00,weatherlink.com 1.10,2013-07-09 22:14:00,
2013-07-09 16:29:00,98.0,53.0,29.63,SW,235,1.0,5.0,22,0.00,,,0.00,weatherlink.com 1.10,2013-07-09 22:29:00,
2013-07-09 16:44:00,97.7,54.0,29.63,WNW,287,1.0,2.0,23,0.00,,,0.00,weatherlink.com 1.10,2013-07-09 22:44:00,
2013-07-09 16:59:00,95.9,51.0,29.63,NW,312,1.0,5.0,22,0.00,,,0.00,weatherlink.com 1.10,2013-07-09 22:59:00,
2013-07-09 17:14:00,96.4,54.0,29.63,NE,56,4.0,5.0,24,0.00,,,0.00,weatherlink.com 1.10,2013-07-09 23:14:00,
2013-07-09 17:29:00,94.0,53.0,29.63,SSE,158,7.0,13.0,25,0.00,,,0.00,weatherlink.com 1.10,2013-07-09 23:29:00,
2013-07-09 17:44:00,87.5,53.0,29.64,ESE,113,2.0,14.0,31,0.00,,,0.00,weatherlink.com 1.10,2013-07-09 23:44:00,
2013-07-09 17:59:00,85.1,55.0,29.63,ESE,120,3.0,17.0,35,0.00,,,0.00,weatherlink.com 1.10,2013-07-09 23:59:00,
2013-07-09 18:14:00,85.1,55.0,29.66,ENE,68,3.0,7.0,36,0.00,,,0.00,weatherlink.com 1.10,2013-07-10 00:14:00,
2013-07-09 18:29:00,84.8,53.0,29.66,SSW,208,1.0,7.0,33,0.00,,,0.00,weatherlink.com 1.10,2013-07-10 00:29:00,
2013-07-09 18:44:00,85.5,52.0,29.67,ESE,115,2.0,7.0,32,0.00,,,0.00,weatherlink.com 1.10,2013-07-10 00:44:00,
2013-07-09 18:59:00,86.4,53.0,29.67,East,98,0.0,5.0,32,0.00,,,0.00,weatherlink.com 1.10,2013-07-10 00:59:00,
2013-07-09 19:14:00,86.5,54.0,29.65,SSE,165,2.0,3.0,33,0.00,,,0.00,weatherlink.com 1.10,2013-07-10 01:14:00,
2013-07-09 19:29:00,86.1,53.0,29.65,ESE,119,2.0,5.0,32,0.00,,,0.00,weatherlink.com 1.10,2013-07-10 01:29:00,
2013-07-09 19:44:00,86.0,54.0,29.65,SW,219,2.0,6.0,33,0.00,,,0.00,weatherlink.com 1.10,2013-07-10 01:44:00,
2013-07-09 19:59:00,85.4,55.0,29.65,SE,132,0.0,3.0,35,0.00,,,0.00,weatherlink.com 1.10,2013-07-10 01:59:00,
2013-07-09 20:14:00,84.4,55.0,29.64,SE,140,1.0,1.0,36,0.00,,,0.00,weatherlink.com 1.10,2013-07-10 02:14:00,
2013-07-09 20:29:00,84.6,55.0,29.63,ESE,113,3.0,8.0,36,0.00,,,0.00,weatherlink.com 1.10,2013-07-10 02:29:00,
2013-07-09 20:44:00,83.7,54.0,29.63,ESE,117,3.0,6.0,36,0.00,,,0.00,weatherlink.com 1.10,2013-07-10 02:44:00,
2013-07-09 20:59:00,83.4,55.0,29.64,NNE,27,0.0,3.0,38,0.00,,,0.00,weatherlink.com 1.10,2013-07-10 02:59:00,
2013-07-09 21:14:00,83.3,55.0,29.65,NNW,341,0.0,3.0,38,0.00,,,0.00,weatherlink.com 1.10,2013-07-10 03:14:00,
2013-07-09 21:29:00,82.9,55.0,29.67,SE,143,1.0,2.0,38,0.00,,,0.00,weatherlink.com 1.10,2013-07-10 03:29:00,
2013-07-09 21:44:00,82.7,57.0,29.68,SE,128,0.0,1.0,41,0.00,,,0.00,weatherlink.com 1.10,2013-07-10 03:44:00,
2013-07-09 21:59:00,82.6,57.0,29.69,NW,314,0.0,2.0,42,0.00,,,0.00,weatherlink.com 1.10,2013-07-10 03:59:00,
2013-07-09 22:14:00,82.4,58.0,29.70,NNE,29,0.0,1.0,43,0.00,,,0.00,weatherlink.com 1.10,2013-07-10 04:14:00,
2013-07-09 22:29:00,82.2,57.0,29.71,ESE,105,0.0,2.0,42,0.00,,,0.00,weatherlink.com 1.10,2013-07-10 04:29:00,
2013-07-09 22:44:00,82.5,55.0,29.70,ESE,114,0.0,5.0,39,0.00,,,0.00,weatherlink.com 1.10,2013-07-10 04:44:00,
2013-07-09 22:59:00,83.3,54.0,29.70,ESE,120,2.0,7.0,37,0.00,,,0.00,weatherlink.com 1.10,2013-07-10 04:59:00,
2013-07-09 23:14:00,83.0,54.0,29.70,South,170,5.0,11.0,37,0.00,,,0.00,weatherlink.com 1.10,2013-07-10 05:14:00,
2013-07-09 23:29:00,82.5,54.0,29.70,ESE,109,2.0,5.0,38,0.00,,,0.00,weatherlink.com 1.10,2013-07-10 05:29:00,
2013-07-09 23:44:00,82.0,55.0,29.70,ESE,113,2.0,5.0,39,0.00,,,0.00,weatherlink.com 1.10,2013-07-10 05:44:00,
2013-07-09 23:59:00,81.6,54.0,29.70,East,89,0.0,5.0,38,0.00,,,0.00,weatherlink.com 1.10,2013-07-10 05:59:00,